Time;durP1;ratioP1;P1;durP2;ratioP2;P2;SDS_P1;SDS_P2;PMS_P1;PMS_P2;Temp;Humidity;BMP_temperature;BMP_pressure;BME280_temperature;BME280_humidity;BME280_pressure;Samples;Min_cycle;Max_cycle;Signal;HPM_P1;HPM_P2
2022/02/04 00:05:13;;;;;;;3.60;3.30;;;;;;;7.33;76.95;95308.28;5047139;28;20193;-86
2022/02/04 00:08:00;;;;;;;3.70;3.23;;;;;;;7.35;77.13;95311.50;5051844;28;20726;-87
2022/02/04 00:21:40;;;;;;;3.00;2.70;;;;;;;7.37;75.91;95307.00;5051534;28;20271;-87
2022/02/04 00:24:08;;;;;;;2.97;2.77;;;;;;;7.40;76.09;95299.81;5051873;28;20575;-88
2022/02/04 00:26:38;;;;;;;3.27;2.97;;;;;;;7.43;75.68;95307.16;5051852;28;20189;-87
2022/02/04 00:29:13;;;;;;;3.37;3.00;;;;;;;7.41;75.35;95303.97;5049913;28;20244;-87
2022/02/04 00:31:44;;;;;;;2.90;2.60;;;;;;;7.41;75.26;95298.84;5051303;28;20221;-88
2022/02/04 00:34:14;;;;;;;3.10;2.80;;;;;;;7.41;75.50;95311.66;5051606;28;20190;-87
2022/02/04 00:36:47;;;;;;;3.40;3.10;;;;;;;7.43;75.16;95312.28;5051865;28;20200;-87
2022/02/04 00:39:20;;;;;;;3.77;3.00;;;;;;;7.40;75.07;95329.75;5050564;28;20312;-88
2022/02/04 00:41:47;;;;;;;3.87;2.80;;;;;;;7.41;75.17;95321.91;5052240;28;20197;-89
2022/02/04 00:44:20;;;;;;;4.27;2.93;;;;;;;7.43;74.99;95324.28;5051641;28;20609;-85
2022/02/04 00:46:59;;;;;;;2.87;2.63;;;;;;;7.43;74.86;95332.78;5052238;28;20612;-87
2022/02/04 00:49:35;;;;;;;3.83;2.97;;;;;;;7.41;74.65;95321.91;5040259;28;20288;-88
2022/02/04 00:52:09;;;;;;;4.43;2.97;;;;;;;7.40;74.72;95333.09;5035895;28;20229;-88
2022/02/04 00:54:48;;;;;;;3.50;3.13;;;;;;;7.41;74.74;95334.69;5038383;28;20296;-86
2022/02/04 00:57:20;;;;;;;3.40;3.10;;;;;;;7.38;74.67;95329.91;5036175;28;20734;-88
2022/02/04 01:13:36;;;;;;;3.10;2.80;;;;;;;7.08;74.74;95382.59;5050724;28;20772;-87
2022/02/04 01:27:02;;;;;;;2.97;2.73;;;;;;;7.05;74.79;95389.78;5051577;28;20279;-84
2022/02/04 01:29:34;;;;;;;3.23;2.70;;;;;;;6.99;74.64;95395.53;5050581;28;20718;-87
2022/02/04 01:32:01;;;;;;;3.70;2.93;;;;;;;6.92;75.21;95393.63;5051201;28;20200;-87
2022/02/04 01:34:27;;;;;;;3.40;2.80;;;;;;;6.90;74.99;95397.28;5050832;28;20190;-85
2022/02/04 01:36:53;;;;;;;3.13;2.80;;;;;;;6.80;75.12;95396.63;5050505;28;20190;-84
2022/02/04 01:39:21;;;;;;;2.93;2.60;;;;;;;6.80;75.21;95389.75;5050066;28;20221;-89
2022/02/04 01:41:47;;;;;;;3.77;3.10;;;;;;;6.82;75.11;95387.84;5052569;28;20220;-87
2022/02/04 01:44:21;;;;;;;3.40;3.10;;;;;;;6.79;75.01;95393.25;5055073;28;20237;-89
2022/02/04 01:46:48;;;;;;;4.50;3.27;;;;;;;6.73;75.16;95393.91;5054382;28;20734;-86
2022/02/04 01:49:14;;;;;;;3.40;3.10;;;;;;;6.68;75.15;95382.53;5053659;28;20233;-87
2022/02/04 01:51:41;;;;;;;3.57;2.90;;;;;;;6.67;75.03;95388.63;5054918;28;20202;-88
2022/02/04 01:54:08;;;;;;;4.27;3.20;;;;;;;6.63;75.22;95384.75;5054363;28;20197;-88
2022/02/04 01:56:35;;;;;;;3.20;2.87;;;;;;;6.59;75.35;95379.94;5048501;28;20200;-87
2022/02/04 01:59:02;;;;;;;3.73;3.33;;;;;;;6.59;75.40;95389.38;5054083;28;20232;-87
2022/02/04 02:01:28;;;;;;;4.30;3.20;;;;;;;6.58;75.28;95380.09;5054708;28;20587;-87
2022/02/04 02:03:55;;;;;;;3.40;3.00;;;;;;;6.58;74.97;95386.03;5055482;28;20193;-87
2022/02/04 02:06:40;;;;;;;3.27;2.93;;;;;;;6.54;75.53;95381.41;5054956;28;20553;-85
2022/02/04 02:09:07;;;;;;;2.70;2.50;;;;;;;6.52;75.52;95385.88;5053966;28;20321;-86
2022/02/04 02:11:33;;;;;;;3.70;3.03;;;;;;;6.57;75.43;95381.88;5054819;28;20200;-86
2022/02/04 02:14:05;;;;;;;3.10;2.80;;;;;;;6.56;75.51;95384.56;5054484;28;20206;-83
2022/02/04 02:16:57;;;;;;;3.43;2.90;;;;;;;6.57;75.46;95386.97;5054806;28;20669;-87
2022/02/04 02:33:34;;;;;;;3.87;2.80;;;;;;;6.41;74.61;95402.28;5054177;28;20228;-86
2022/02/04 02:36:50;;;;;;;3.30;2.63;;;;;;;6.40;74.91;95402.44;5050888;28;20665;-87
2022/02/04 02:40:01;;;;;;;3.00;2.70;;;;;;;6.35;74.91;95408.00;5052958;28;20296;-86
2022/02/04 02:42:29;;;;;;;2.83;2.60;;;;;;;6.37;75.40;95403.53;5052723;28;20878;-86
2022/02/04 02:45:10;;;;;;;3.07;2.77;;;;;;;6.37;75.05;95395.88;5054382;28;20189;-86
2022/02/04 02:47:47;;;;;;;3.30;3.00;;;;;;;6.40;75.57;95394.78;5053815;28;20276;-85
2022/02/04 02:50:35;;;;;;;3.70;3.20;;;;;;;6.39;75.76;95400.84;5053054;28;20225;-86
2022/02/04 02:53:24;;;;;;;3.70;3.33;;;;;;;6.35;75.78;95397.00;5053050;28;20198;-87
2022/02/04 02:56:17;;;;;;;3.93;3.60;;;;;;;6.37;76.13;95411.22;5049178;28;20202;-87
2022/02/04 02:58:48;;;;;;;4.00;3.60;;;;;;;6.36;76.44;95401.13;5052854;28;20712;-86
2022/02/04 03:01:15;;;;;;;3.97;3.67;;;;;;;6.32;76.70;95407.53;5053540;28;20197;-87
2022/02/04 03:03:44;;;;;;;4.60;3.90;;;;;;;6.31;76.88;95405.94;5054056;28;20201;-87
2022/02/04 03:06:10;;;;;;;3.70;3.40;;;;;;;6.27;76.76;95399.53;5053065;28;20734;-88
2022/02/04 03:08:36;;;;;;;3.80;3.50;;;;;;;6.29;76.54;95405.28;5052689;28;20217;-86
2022/02/04 03:11:04;;;;;;;3.90;3.50;;;;;;;6.30;76.52;95405.13;5053870;28;20221;-87
2022/02/04 03:13:32;;;;;;;3.93;3.53;;;;;;;6.35;76.45;95402.13;5054263;28;20573;-87
2022/02/04 03:16:01;;;;;;;3.80;3.50;;;;;;;6.40;75.90;95408.34;5053284;28;20201;-87
2022/02/04 03:18:31;;;;;;;4.50;3.87;;;;;;;6.41;76.36;95412.50;5052212;28;20213;-87
2022/02/04 03:21:04;;;;;;;3.90;3.50;;;;;;;6.42;76.44;95415.88;5053217;28;20194;-86
2022/02/04 03:23:33;;;;;;;4.20;3.80;;;;;;;6.41;76.94;95421.94;5053204;28;20264;-87
2022/02/04 03:26:07;;;;;;;4.47;4.00;;;;;;;6.42;76.61;95421.78;5052973;28;20255;-86
2022/02/04 03:28:36;;;;;;;4.87;3.97;;;;;;;6.40;76.78;95422.91;5051934;28;20223;-88
2022/02/04 03:31:03;;;;;;;4.30;3.90;;;;;;;6.38;76.94;95410.25;5053563;28;20275;-87
2022/02/04 03:33:31;;;;;;;5.17;4.30;;;;;;;6.42;76.73;95415.88;5053764;28;20201;-87
2022/02/04 03:35:57;;;;;;;5.90;4.23;;;;;;;6.40;76.89;95422.91;5054016;28;20604;-86
2022/02/04 03:38:24;;;;;;;4.37;3.87;;;;;;;6.39;77.02;95416.19;5053128;28;20221;-86
2022/02/04 03:40:50;;;;;;;3.97;3.60;;;;;;;6.30;77.15;95423.03;5053187;28;20770;-87
2022/02/04 03:43:17;;;;;;;3.93;3.63;;;;;;;6.30;77.03;95433.25;5052804;28;20201;-87
2022/02/04 03:45:45;;;;;;;4.17;3.77;;;;;;;6.27;77.22;95431.00;5052633;28;20194;-86
2022/02/04 03:48:11;;;;;;;4.07;3.73;;;;;;;6.33;76.97;95439.81;5052312;28;20218;-84
2022/02/04 03:50:37;;;;;;;4.30;3.90;;;;;;;6.32;76.79;95433.09;5052213;28;20233;-86
2022/02/04 03:53:05;;;;;;;4.20;3.80;;;;;;;6.34;76.75;95439.69;5052465;28;20201;-87
2022/02/04 03:55:32;;;;;;;4.43;3.90;;;;;;;6.32;76.98;95433.91;5052390;28;20205;-84
2022/02/04 03:57:58;;;;;;;5.17;4.00;;;;;;;6.30;76.69;95428.16;5052087;28;20263;-86
2022/02/04 04:00:25;;;;;;;5.17;4.50;;;;;;;6.28;76.55;95434.38;5051115;28;20264;-86
2022/02/04 04:02:52;;;;;;;5.30;4.00;;;;;;;6.22;76.96;95434.00;5052864;28;20197;-86
2022/02/04 04:05:19;;;;;;;5.13;4.23;;;;;;;6.23;76.87;95429.72;5051674;28;20198;-87
2022/02/04 04:07:48;;;;;;;4.97;4.33;;;;;;;6.20;76.88;95430.81;5048116;28;20217;-86
2022/02/04 04:10:20;;;;;;;4.67;4.10;;;;;;;6.20;76.52;95430.81;5035221;28;20222;-86
2022/02/04 04:12:46;;;;;;;4.73;4.33;;;;;;;6.19;76.86;95436.06;5035403;28;20194;-86
2022/02/04 04:15:13;;;;;;;4.73;4.27;;;;;;;6.18;76.94;95432.72;5035712;28;20198;-86
2022/02/04 04:17:40;;;;;;;5.00;4.47;;;;;;;6.10;76.79;95435.25;5036086;28;20194;-85
2022/02/04 04:20:10;;;;;;;5.13;4.10;;;;;;;6.05;76.92;95444.31;5034891;28;20592;-86
2022/02/04 04:22:37;;;;;;;4.73;4.33;;;;;;;6.06;77.12;95446.72;5048293;28;20198;-87
2022/02/04 04:25:04;;;;;;;4.73;4.30;;;;;;;6.05;76.79;95454.53;5052109;28;20212;-84
2022/02/04 04:27:30;;;;;;;4.80;4.40;;;;;;;6.02;76.82;95459.94;5051546;28;20201;-87
2022/02/04 04:29:57;;;;;;;4.90;4.40;;;;;;;5.99;77.15;95467.91;5051679;28;20233;-84
2022/02/04 04:32:23;;;;;;;5.07;4.57;;;;;;;6.01;76.64;95461.69;5051878;28;20201;-87
2022/02/04 04:34:49;;;;;;;4.97;4.47;;;;;;;5.97;76.71;95470.63;5052058;28;20194;-85
2022/02/04 04:37:17;;;;;;;4.50;4.10;;;;;;;5.95;76.97;95475.09;5051579;28;20280;-87
2022/02/04 04:39:54;;;;;;;4.70;4.30;;;;;;;5.94;77.20;95477.81;5051227;28;20303;-86
2022/02/04 04:42:31;;;;;;;5.53;4.33;;;;;;;5.96;77.24;95474.16;5051978;28;20228;-86
2022/02/04 05:26:22;;;;;;;7.03;5.77;;;;;;;5.74;78.79;95513.72;5050190;28;20258;-83
2022/02/04 05:28:59;;;;;;;6.80;6.03;;;;;;;5.74;78.93;95511.16;5047989;28;20226;-85
2022/02/04 05:31:26;;;;;;;6.93;6.07;;;;;;;5.75;78.82;95515.34;5049790;28;20623;-87
2022/02/04 05:33:53;;;;;;;7.23;6.50;;;;;;;5.75;78.83;95510.22;5049641;28;20208;-86
2022/02/04 05:36:19;;;;;;;7.30;6.60;;;;;;;5.75;79.08;95511.97;5049779;28;20200;-82
2022/02/04 05:38:46;;;;;;;9.33;6.77;;;;;;;5.71;79.99;95503.81;5048873;28;20711;-86
2022/02/04 05:41:20;;;;;;;8.00;6.93;;;;;;;5.69;80.08;95507.44;5040775;28;20734;-88
2022/02/04 05:43:48;;;;;;;8.80;6.57;;;;;;;5.69;79.64;95508.25;5035463;28;20194;-85
2022/02/04 05:46:18;;;;;;;7.87;6.03;;;;;;;5.67;79.59;95502.50;5046208;28;20205;-85
2022/02/04 05:48:48;;;;;;;8.27;7.20;;;;;;;5.67;79.51;95512.69;5044166;28;20422;-85
2022/02/04 05:51:33;;;;;;;7.07;6.37;;;;;;;5.65;79.94;95514.59;5047605;28;20213;-85
2022/02/04 05:54:06;;;;;;;8.67;7.30;;;;;;;5.66;79.74;95513.66;5042430;28;20197;-87
2022/02/04 05:56:41;;;;;;;7.73;6.87;;;;;;;5.68;79.81;95516.88;5042106;28;20681;-86
2022/02/04 05:59:17;;;;;;;7.40;6.60;;;;;;;5.68;79.46;95511.75;5042542;28;20225;-86
2022/02/04 06:01:52;;;;;;;8.70;6.90;;;;;;;5.71;79.58;95521.69;5045218;28;20196;-85
2022/02/04 06:04:34;;;;;;;7.80;7.00;;;;;;;5.75;78.91;95530.66;5035580;28;20201;-85
2022/02/04 06:07:10;;;;;;;8.17;6.80;;;;;;;5.74;78.92;95530.81;5040318;28;20620;-86
2022/02/04 06:23:44;;;;;;;7.90;7.10;;;;;;;5.68;80.12;95541.59;5023277;28;20247;-86
2022/02/04 06:26:11;;;;;;;8.63;7.37;;;;;;;5.69;80.13;95549.13;5045080;28;20572;-86
2022/02/04 06:28:40;;;;;;;10.03;7.70;;;;;;;5.68;80.65;95539.84;5048948;28;20221;-84
2022/02/04 06:31:06;;;;;;;9.23;7.83;;;;;;;5.69;80.86;95545.75;5047406;28;20853;-85
2022/02/04 06:33:33;;;;;;;17.30;12.73;;;;;;;5.70;81.32;95548.19;5050775;28;20661;-86
2022/02/04 06:35:59;;;;;;;22.20;17.60;;;;;;;5.77;81.28;95550.94;5050331;28;20233;-87
2022/02/04 06:38:27;;;;;;;11.03;8.93;;;;;;;5.80;81.55;95553.19;5047154;28;20228;-82
2022/02/04 06:40:54;;;;;;;9.97;8.30;;;;;;;5.83;81.33;95550.34;5038536;28;20619;-84
2022/02/04 06:43:20;;;;;;;10.37;9.03;;;;;;;5.86;80.88;95557.72;5048979;28;20888;-83
2022/02/04 06:45:48;;;;;;;10.60;9.13;;;;;;;5.88;80.82;95563.47;5050175;28;20197;-86
2022/02/04 06:48:15;;;;;;;11.00;9.80;;;;;;;5.84;81.58;95560.41;5048572;28;20221;-85
2022/02/04 06:50:41;;;;;;;9.83;8.83;;;;;;;5.84;81.70;95559.59;5048509;28;20240;-84
2022/02/04 06:53:08;;;;;;;12.07;9.47;;;;;;;5.86;81.89;95566.19;5048533;28;20204;-86
2022/02/04 06:55:35;;;;;;;9.70;8.70;;;;;;;5.88;82.48;95566.03;5051832;28;20205;-85
2022/02/04 06:58:02;;;;;;;12.63;8.97;;;;;;;5.99;81.76;95565.00;5049136;28;20553;-85
2022/02/04 07:00:29;;;;;;;10.43;9.07;;;;;;;5.97;82.19;95565.16;5047171;28;20221;-86
2022/02/04 07:02:57;;;;;;;11.67;9.60;;;;;;;5.97;82.30;95566.91;5039675;28;20306;-86
2022/02/04 07:05:24;;;;;;;10.57;9.47;;;;;;;5.94;82.94;95570.59;5046702;28;20201;-84
2022/02/04 07:07:59;;;;;;;11.47;9.40;;;;;;;6.01;82.70;95570.78;5036354;28;20388;-81
2022/02/04 07:10:33;;;;;;;10.77;9.17;;;;;;;6.05;82.24;95569.53;5041918;28;20279;-86
2022/02/04 07:13:08;;;;;;;12.43;10.47;;;;;;;6.12;81.97;95570.56;5034817;28;20202;-88
2022/02/04 07:21:02;;;;;;;11.10;9.97;;;;;;;6.12;81.94;95583.34;5050662;28;20229;-85
2022/02/04 07:23:29;;;;;;;12.30;10.83;;;;;;;6.15;81.75;95571.06;5051601;28;20201;-86
2022/02/04 07:25:55;;;;;;;14.47;10.50;;;;;;;6.11;82.33;95582.53;5045860;28;20636;-88
2022/02/04 07:28:23;;;;;;;11.73;10.50;;;;;;;6.15;82.00;95583.84;5051651;28;20241;-85
2022/02/04 07:30:50;;;;;;;13.47;10.07;;;;;;;6.23;81.74;95581.34;5041056;28;20696;-86
2022/02/04 07:33:20;;;;;;;11.97;10.73;;;;;;;6.27;81.76;95584.41;5044011;28;20194;-87
2022/02/04 07:41:13;;;;;;;11.03;9.53;;;;;;;6.41;81.09;95594.06;5044658;28;20375;-87
2022/02/04 07:43:40;;;;;;;13.27;10.10;;;;;;;6.41;80.84;95599.19;5044365;28;20210;-85
2022/02/04 07:46:07;;;;;;;11.63;9.70;;;;;;;6.44;80.73;95610.88;5051330;28;20236;-88
2022/02/04 07:48:35;;;;;;;10.87;9.77;;;;;;;6.35;80.90;95602.34;5051346;28;20602;-86
2022/02/04 07:51:01;;;;;;;12.23;10.27;;;;;;;6.37;80.56;95600.44;5051515;28;20725;-84
2022/02/04 07:53:30;;;;;;;10.80;9.70;;;;;;;6.47;80.66;95598.59;5049550;28;20204;-82
2022/02/04 07:55:57;;;;;;;13.20;9.80;;;;;;;6.49;80.55;95601.81;5051703;28;20209;-87
2022/02/04 07:58:24;;;;;;;11.40;10.00;;;;;;;6.51;80.25;95599.09;5051909;28;20221;-84
2022/02/04 08:00:51;;;;;;;12.97;9.87;;;;;;;6.54;80.40;95598.81;5050160;28;20657;-84
2022/02/04 08:06:09;;;;;;;10.70;9.60;;;;;;;6.56;80.13;95605.34;5043943;28;20205;-87
2022/02/04 08:08:43;;;;;;;11.67;9.43;;;;;;;6.65;79.65;95600.28;5050143;28;20732;-83
2022/02/04 08:14:18;;;;;;;11.87;10.27;;;;;;;6.71;79.62;95603.06;5051231;28;20208;-86
2022/02/04 08:20:10;;;;;;;8.57;7.50;;;;;;;7.01;86.51;95593.25;5052374;28;20577;-84
2022/02/04 08:25:57;;;;;;;11.03;9.60;;;;;;;7.44;80.75;95589.72;5049365;28;20201;-84
2022/02/04 08:36:57;;;;;;;10.83;9.67;;;;;;;7.67;74.94;95584.78;5010165;28;20209;-86
2022/02/04 08:53:36;;;;;;;11.40;10.07;;;;;;;7.18;77.07;95579.56;5073928;28;20204;-87
2022/02/04 08:56:03;;;;;;;11.87;10.10;;;;;;;7.17;76.58;95581.31;5087069;28;20200;-87
2022/02/04 08:58:34;;;;;;;11.97;10.67;;;;;;;7.21;76.45;95587.72;5093599;28;20622;-87
2022/02/04 09:01:06;;;;;;;11.97;10.57;;;;;;;7.21;76.57;95594.59;5091762;28;20224;-87
2022/02/04 09:03:41;;;;;;;13.67;10.50;;;;;;;7.20;76.45;95593.81;5104119;28;20231;-87
2022/02/04 09:06:13;;;;;;;11.27;10.03;;;;;;;7.00;76.14;95607.81;5101231;28;20215;-87
2022/02/04 09:08:43;;;;;;;12.13;9.90;;;;;;;6.93;77.15;95592.25;5088239;28;20249;-85
2022/02/04 09:11:14;;;;;;;11.17;9.97;;;;;;;6.90;77.52;95602.03;5099666;28;20215;-86
2022/02/04 09:19:13;;;;;;;10.40;9.30;;;;;;;6.90;76.78;95597.72;5093625;28;20219;-86
2022/02/04 09:24:25;;;;;;;10.60;8.93;;;;;;;6.87;76.94;95610.00;5104039;28;20199;-88
2022/02/04 09:26:52;;;;;;;10.40;9.33;;;;;;;6.91;77.13;95607.00;5091086;28;20256;-87
2022/02/04 09:29:19;;;;;;;10.97;9.77;;;;;;;6.94;77.03;95610.97;5096894;28;20702;-87
2022/02/04 09:31:45;;;;;;;10.23;9.23;;;;;;;6.94;76.44;95608.41;5097967;28;20204;-87
2022/02/04 09:34:12;;;;;;;11.23;9.07;;;;;;;6.87;76.21;95613.38;5098412;28;20227;-87
2022/02/04 09:36:39;;;;;;;11.20;8.83;;;;;;;6.89;76.42;95608.91;5090698;28;20201;-85
2022/02/04 09:39:09;;;;;;;10.03;8.90;;;;;;;6.99;77.14;95600.28;5087783;28;20212;-85
2022/02/04 09:41:36;;;;;;;9.97;8.97;;;;;;;7.04;75.99;95600.63;5100866;28;20226;-87
2022/02/04 09:44:03;;;;;;;10.13;9.13;;;;;;;7.06;76.08;95604.66;5100573;28;20192;-86
2022/02/04 09:46:34;;;;;;;10.60;9.57;;;;;;;7.11;75.63;95604.19;5094219;28;20192;-88
2022/02/04 09:49:01;;;;;;;10.13;8.97;;;;;;;7.03;75.55;95596.47;5098904;28;20241;-86
2022/02/04 09:51:37;;;;;;;10.70;9.60;;;;;;;7.13;74.95;95592.81;5102911;28;20204;-87
2022/02/04 10:14:11;;;;;;;8.90;7.53;;;;;;;7.35;72.94;95570.16;5059772;28;20285;-86
2022/02/04 10:17:04;;;;;;;9.63;8.57;;;;;;;7.35;72.96;95580.41;5089852;28;20207;-86
2022/02/04 10:19:30;;;;;;;9.00;8.10;;;;;;;7.29;72.54;95574.16;5077342;28;20275;-85
2022/02/04 10:21:57;;;;;;;8.63;7.67;;;;;;;7.35;72.72;95570.16;5092701;28;20257;-87
2022/02/04 10:24:26;;;;;;;9.07;7.50;;;;;;;7.47;72.37;95571.47;5092393;28;20314;-87
2022/02/04 10:27:09;;;;;;;9.20;7.27;;;;;;;7.51;72.12;95572.75;5093296;28;20670;-87
2022/02/04 10:29:38;;;;;;;7.90;7.13;;;;;;;7.45;71.76;95571.63;5083950;28;20270;-87
2022/02/04 10:32:05;;;;;;;8.30;7.47;;;;;;;7.59;71.60;95570.19;5072075;28;20208;-86
2022/02/04 10:34:33;;;;;;;8.87;7.40;;;;;;;7.62;71.24;95564.75;5075436;28;20230;-87
2022/02/04 10:37:02;;;;;;;8.10;7.30;;;;;;;7.58;71.17;95566.84;5093054;28;20211;-85
2022/02/04 10:39:55;;;;;;;7.53;6.83;;;;;;;7.66;70.82;95562.69;5092632;28;20220;-87
2022/02/04 10:42:26;;;;;;;7.80;6.93;;;;;;;7.78;70.85;95553.72;5091848;28;20287;-87
2022/02/04 10:45:10;;;;;;;7.83;6.80;;;;;;;7.66;69.70;95549.88;5093286;28;20207;-85
2022/02/04 10:53:41;;;;;;;6.53;5.93;;;;;;;8.05;68.62;95542.34;5088556;28;20377;-86
2022/02/04 10:56:27;;;;;;;7.03;6.43;;;;;;;8.22;68.99;95534.47;5076528;28;20201;-86
2022/02/04 10:59:08;;;;;;;6.80;6.20;;;;;;;8.19;67.13;95532.22;5079955;28;20766;-87
2022/02/04 11:01:59;;;;;;;6.57;5.97;;;;;;;8.19;66.76;95521.97;5084247;28;20333;-87
2022/02/04 11:04:32;;;;;;;7.13;6.43;;;;;;;8.05;65.64;95512.38;5073932;28;20193;-86
2022/02/04 11:07:16;;;;;;;8.83;7.93;;;;;;;8.08;65.50;95501.78;5080543;28;20227;-88
2022/02/04 11:09:54;;;;;;;6.40;5.80;;;;;;;8.06;66.45;95510.63;5077990;28;20228;-87
2022/02/04 11:32:21;;;;;;;5.73;5.13;;;;;;;8.06;64.35;95475.53;5081109;28;20316;-86
2022/02/04 11:35:19;;;;;;;5.57;5.07;;;;;;;8.15;64.44;95469.41;5089085;28;20418;-87
2022/02/04 11:43:51;;;;;;;6.63;5.50;;;;;;;8.13;64.38;95473.09;5082344;28;20235;-85
2022/02/04 11:54:44;;;;;;;5.03;4.53;;;;;;;7.88;65.77;95449.28;5077636;28;20686;-84
2022/02/04 11:57:18;;;;;;;5.17;4.77;;;;;;;7.91;65.75;95451.50;5086300;28;20204;-87
2022/02/04 11:59:51;;;;;;;5.67;5.17;;;;;;;8.03;65.75;95445.09;5087757;28;20261;-87
2022/02/04 12:02:44;;;;;;;5.70;5.10;;;;;;;7.97;65.42;95443.97;5082832;28;20204;-88
2022/02/04 12:05:30;;;;;;;5.70;5.17;;;;;;;8.00;65.44;95435.16;5079962;28;20228;-87
2022/02/04 12:08:31;;;;;;;6.00;5.40;;;;;;;7.95;65.54;95427.94;5074455;28;20231;-88
2022/02/04 12:11:08;;;;;;;6.47;5.83;;;;;;;8.01;66.03;95415.44;5075262;28;20228;-87
2022/02/04 12:14:12;;;;;;;5.83;5.20;;;;;;;8.09;66.02;95423.91;5088668;28;20629;-87
2022/02/04 12:17:04;;;;;;;5.90;5.40;;;;;;;8.10;65.98;95415.25;5090864;28;20824;-87
2022/02/04 12:19:39;;;;;;;6.03;5.43;;;;;;;8.18;66.09;95412.66;5090829;28;20254;-88
2022/02/04 12:22:07;;;;;;;6.33;5.43;;;;;;;8.24;66.00;95400.94;5092481;28;20206;-87
2022/02/04 12:24:39;;;;;;;8.40;5.73;;;;;;;8.37;66.24;95390.97;5090664;28;20232;-89
2022/02/04 12:27:34;;;;;;;6.83;6.23;;;;;;;8.46;65.54;95384.06;5091503;28;20212;-88
2022/02/04 12:30:32;;;;;;;7.10;6.40;;;;;;;8.60;65.45;95380.75;5091336;28;20706;-85
2022/02/04 12:32:59;;;;;;;6.37;5.77;;;;;;;8.70;64.96;95385.66;5087233;28;20223;-88
2022/02/04 12:35:28;;;;;;;7.20;6.50;;;;;;;9.07;64.96;95378.03;5090362;28;20231;-87
2022/02/04 12:37:55;;;;;;;7.00;5.83;;;;;;;9.52;63.04;95376.38;5090968;28;20695;-88
2022/02/04 12:40:22;;;;;;;6.17;5.57;;;;;;;9.87;61.86;95367.19;5090221;28;20195;-88
2022/02/04 12:42:48;;;;;;;6.83;6.07;;;;;;;10.00;62.13;95364.81;5090570;28;20204;-87
2022/02/04 12:45:16;;;;;;;6.17;5.57;;;;;;;10.28;60.95;95362.41;5090152;28;20740;-86
2022/02/04 12:47:42;;;;;;;6.27;5.67;;;;;;;10.44;59.54;95362.19;5089907;28;20667;-87
2022/02/04 12:50:09;;;;;;;6.57;5.83;;;;;;;10.46;58.90;95356.88;5090542;28;20698;-88
2022/02/04 12:52:44;;;;;;;7.30;6.00;;;;;;;10.51;59.03;95352.00;5091446;28;20211;-87
2022/02/04 12:55:20;;;;;;;6.37;5.77;;;;;;;10.72;57.99;95345.09;5091077;28;20216;-87
2022/02/04 12:57:57;;;;;;;12.47;9.70;;;;;;;11.02;58.15;95338.03;5090693;28;20199;-86
2022/02/04 13:01:56;;;;;;;8.50;7.60;;;;;;;11.30;57.85;95342.44;5087792;28;20241;-87
2022/02/04 13:03:16;;;;;;;8.33;6.07;;;;;;;11.13;56.64;95330.78;5073594;28;20287;-86
2022/02/04 13:08:40;;;;;;;6.40;5.80;;;;;;;10.81;57.30;95322.56;5087318;28;20235;-86
2022/02/04 13:11:10;;;;;;;8.17;6.10;;;;;;;10.53;57.72;95326.88;5100762;28;20220;-88
2022/02/04 13:13:44;;;;;;;6.53;5.90;;;;;;;10.41;58.48;95325.72;5090648;28;20675;-87
2022/02/04 13:16:15;;;;;;;7.07;6.37;;;;;;;10.15;58.55;95321.88;5090407;28;20608;-86
2022/02/04 13:18:42;;;;;;;6.53;5.93;;;;;;;10.22;59.13;95321.94;5089497;28;20220;-86
2022/02/04 13:21:08;;;;;;;6.40;5.80;;;;;;;10.50;58.29;95320.31;5091310;28;20196;-86
2022/02/04 13:23:36;;;;;;;7.17;6.03;;;;;;;10.43;58.00;95322.00;5090574;28;20720;-87
2022/02/04 13:26:05;;;;;;;6.53;5.93;;;;;;;10.28;57.92;95318.66;5090384;28;20232;-87
2022/02/04 13:28:33;;;;;;;7.27;5.90;;;;;;;10.10;58.49;95310.50;5090121;28;20776;-87
2022/02/04 13:31:03;;;;;;;8.57;6.00;;;;;;;10.18;58.63;95310.41;5086659;28;20246;-86
2022/02/04 13:33:33;;;;;;;6.50;5.80;;;;;;;10.23;58.58;95306.34;5077778;28;20197;-87
2022/02/04 13:36:10;;;;;;;6.53;5.90;;;;;;;10.32;58.30;95307.84;5081394;28;20220;-85
2022/02/04 13:38:48;;;;;;;6.10;5.50;;;;;;;10.39;57.66;95303.53;5093953;28;20237;-87
2022/02/04 13:41:24;;;;;;;6.20;5.60;;;;;;;10.28;58.00;95304.03;5094516;28;20188;-87
2022/02/04 13:44:19;;;;;;;8.03;5.90;;;;;;;10.24;58.80;95304.56;5093537;28;20211;-86
2022/02/04 13:46:51;;;;;;;6.97;5.77;;;;;;;10.29;58.55;95295.34;5094412;28;20220;-85
2022/02/04 13:52:11;;;;;;;6.73;5.70;;;;;;;10.67;58.89;95292.53;5089449;28;20204;-87
2022/02/04 13:54:55;;;;;;;6.83;6.13;;;;;;;10.75;57.95;95302.72;5093853;28;20200;-86
2022/02/04 13:57:31;;;;;;;5.80;5.30;;;;;;;10.47;57.82;95301.84;5094746;28;20200;-84
2022/02/04 14:00:24;;;;;;;5.93;5.40;;;;;;;10.39;58.67;95297.63;5094293;28;20215;-87
2022/02/04 14:02:53;;;;;;;6.80;6.10;;;;;;;10.38;58.31;95288.31;5094810;28;20204;-87
2022/02/04 14:05:35;;;;;;;7.20;5.60;;;;;;;10.36;58.39;95285.91;5094515;28;20231;-88
2022/02/04 14:08:07;;;;;;;5.70;5.20;;;;;;;10.36;58.21;95280.78;5093466;28;20216;-88
2022/02/04 14:10:38;;;;;;;6.60;5.60;;;;;;;10.51;58.49;95287.63;5093536;28;20364;-88
2022/02/04 14:13:07;;;;;;;5.80;5.30;;;;;;;10.60;58.15;95279.59;5093749;28;20223;-89
2022/02/04 14:15:36;;;;;;;7.30;6.23;;;;;;;10.66;57.68;95278.06;5092751;28;20627;-87
2022/02/04 14:18:07;;;;;;;5.87;5.20;;;;;;;10.52;57.22;95276.38;5093401;28;20730;-88
2022/02/04 14:20:37;;;;;;;6.33;5.23;;;;;;;10.42;58.32;95274.06;5097438;28;20252;-87
2022/02/04 14:23:04;;;;;;;5.83;5.23;;;;;;;10.35;58.04;95278.38;5103370;28;20231;-86
2022/02/04 14:25:30;;;;;;;6.20;5.60;;;;;;;10.39;58.42;95282.19;5112929;28;20227;-87
2022/02/04 14:28:00;;;;;;;7.33;5.27;;;;;;;10.45;58.06;95278.06;5100511;28;20224;-88
2022/02/04 14:30:32;;;;;;;5.63;5.13;;;;;;;10.54;58.08;95272.63;5092336;28;20212;-87
2022/02/04 14:32:59;;;;;;;5.97;5.33;;;;;;;10.53;58.42;95270.25;5093241;28;20330;-88
2022/02/04 14:35:36;;;;;;;6.23;5.63;;;;;;;10.76;58.24;95270.84;5088065;28;20278;-89
2022/02/04 14:49:24;;;;;;;6.27;4.83;;;;;;;11.26;55.89;95267.25;5092352;28;20649;-87
2022/02/04 14:52:04;;;;;;;4.70;4.23;;;;;;;11.48;56.33;95256.88;5093340;28;20699;-88
2022/02/04 14:54:49;;;;;;;4.83;4.27;;;;;;;11.53;55.27;95257.91;5093717;28;20211;-87
2022/02/04 15:00:17;;;;;;;4.50;4.10;;;;;;;11.46;54.35;95248.53;5091427;28;20262;-87
2022/02/04 15:02:46;;;;;;;4.93;4.50;;;;;;;11.30;54.73;95241.91;5092206;28;20196;-88
2022/02/04 15:05:17;;;;;;;4.70;4.30;;;;;;;11.24;55.41;95243.47;5093047;28;20208;-87
2022/02/04 15:07:45;;;;;;;10.00;8.97;;;;;;;11.03;55.67;95239.16;5091159;28;20204;-87
2022/02/04 15:10:25;;;;;;;7.00;6.30;;;;;;;10.78;56.20;95237.16;5091831;28;20232;-87
2022/02/04 15:12:51;;;;;;;6.40;5.80;;;;;;;10.60;56.89;95230.69;5094403;28;20287;-87
2022/02/04 15:15:18;;;;;;;4.83;4.33;;;;;;;10.47;57.34;95222.06;5095306;28;20204;-86
2022/02/04 15:17:44;;;;;;;6.33;4.10;;;;;;;10.50;57.71;95225.06;5094321;28;20211;-87
2022/02/04 15:20:11;;;;;;;4.77;4.07;;;;;;;10.47;57.37;95222.06;5093095;28;20259;-86
2022/02/04 15:22:37;;;;;;;4.30;3.90;;;;;;;10.44;57.46;95223.22;5093391;28;20229;-85
2022/02/04 15:25:11;;;;;;;4.20;3.83;;;;;;;10.41;57.77;95217.63;5093841;28;20257;-86
2022/02/04 15:27:44;;;;;;;5.13;4.63;;;;;;;10.24;58.06;95222.22;5094348;28;20200;-86
2022/02/04 15:30:18;;;;;;;5.10;4.50;;;;;;;10.23;57.86;95220.63;5092671;28;20224;-86
2022/02/04 15:32:45;;;;;;;5.30;4.80;;;;;;;10.26;57.95;95220.28;5101668;28;20210;-86
2022/02/04 15:35:11;;;;;;;5.97;4.67;;;;;;;10.31;58.14;95230.81;5098149;28;20231;-84
2022/02/04 15:37:38;;;;;;;5.87;4.67;;;;;;;10.31;58.13;95225.69;5084197;28;20197;-87
2022/02/04 15:40:05;;;;;;;4.33;3.93;;;;;;;10.32;58.66;95217.78;5092713;28;20219;-87
2022/02/04 15:42:35;;;;;;;4.27;3.87;;;;;;;10.37;58.81;95219.81;5093988;28;20732;-87
2022/02/04 15:45:16;;;;;;;3.87;3.57;;;;;;;10.40;58.87;95222.00;5095008;28;20196;-86
2022/02/04 15:47:57;;;;;;;5.13;3.20;;;;;;;10.44;58.81;95217.28;5094015;28;20208;-86
2022/02/04 15:50:32;;;;;;;4.43;3.50;;;;;;;10.41;58.73;95230.50;5093414;28;20718;-87
2022/02/04 15:53:16;;;;;;;4.00;3.70;;;;;;;10.34;58.81;95225.31;5093984;28;20199;-86
2022/02/04 15:58:35;;;;;;;3.67;3.30;;;;;;;10.24;59.16;95222.22;5089070;28;20292;-86
2022/02/04 16:01:18;;;;;;;4.37;3.97;;;;;;;10.10;59.16;95223.84;5075194;28;20216;-87
2022/02/04 16:03:55;;;;;;;4.40;4.00;;;;;;;10.01;59.31;95219.78;5081303;28;20222;-87
2022/02/04 16:06:23;;;;;;;5.13;4.43;;;;;;;9.88;60.82;95212.72;5091348;28;20219;-88